Ashford, WA

12:02 AM PDT on August 20, 2014 (GMT -0700)
HADS NISQUALLY RIVER NEAR NATIONAL NE WA US USGS | Change Station
CLOSE
Current Station
Personal Weather Station
Location: Elbe, WA
Elevation: 1450 ft
Nearby Weather Stations

Elev 1450 ft 46.75 °N, 122.08 °W | Updated 1 hour ago

Clear
Clear
64 °F
Feels Like 64 °F
N
Wind Variable Wind from North
Gusts 0.0 mph

Today
High -- | Low -- °F
--% Chance of Precip.
Yesterday
High -- | Low -- °F
Precip. -- in
6:12 AM 8:09 PM
Waning Crescent, 24% visible
Pressure 29.87 in
Visibility 10.0 miles
Clouds Clear
Dew Point Not available.
Humidity Not available.
Rainfall 0.00 in
Snow Depth Not available.
UV 0 out of 12
Pollen 3.50 out of 12
Air Quality Not available.
Flu Activity Not available.
METAR KGRF 200658Z AUTO 17011KT 10SM CLR 15/11 A2986 RMK AO2 SLP114 T01490106 PWINO $

More Conditions Fewer Conditions

Pressure 29.87 in
Visibility 10.0 miles
Clouds Clear
Dew Point Not available.
Humidity Not available.
Rainfall 0.00 in
Snow Depth Not available.
UV 0 out of 12
Pollen 3.50 out of 12
Air Quality Not available.
Flu Activity Not available.
METAR KGRF 200658Z AUTO 17011KT 10SM CLR 15/11 A2986 RMK AO2 SLP114 T01490106 PWINO $

More Conditions Fewer Conditions

10-Day Weather Forecast

Almanac

Astronomy

Aug. 20, 2014 Rise Set
Actual Time 6:12 AM PDT 8:09 PM PDT
Civil Twilight 5:40 AM PDT 8:42 PM PDT
Nautical Twilight 4:59 AM PDT 9:22 PM PDT
Astronomical Twilight 4:15 AM PDT 10:06 PM PDT
Moon 1:50 AM PDT 5:05 PM PDT
Length of Visible Light 15h 02m
Length of Day
13h 56m
Tomorrow will be 3m 5s shorter.
Waning Crescent, 24% of the Moon is Illuminated
Today
Waning Crescent
Aug 25
New
Sep 2
First Quarter
Sep 8
Full
Sep 15
Last Quarter

Community

WunderPhotos

Upload Photos

1,745,592 photos uploaded!

Nearby

Snow Depth

Station Depth Elevation
Burnt Mountain 0 in 4200 ft
Morse Lake 0 in 5400 ft
Spirit Lake 0 in 3120 ft
Lone Pine 0 in 3800 ft
White Pass E.S. 0 in 4500 ft

Earthquake Activity

City Distance Mag. Time & Date
No recent earthquake activity has been reported nearby.
Minimum magnitude displayed is 2.5.

Coastal Water Temperatures

Place Temperature
No Stations Reporting

Nearby Weather Stations